Fayetteville, North Carolina
Current Conditions -  °F | °C
As of 8:53 PM on Saturday 20 Dec 2014 (Local Time) from KFAY Reporting Station
Haze Haze  
Wind Chill: 37°   Ceiling: 3100
Heat Index: 37°   Visibility: 5mi
Dew Point: 35°   Wind: 3mph
Humidity: 93%   Direction: 30°NNE
Pressure: 30.28"   Gusts: NA
Location:  35.05°N, 78.88°W
Report Text: KFAY 210153Z 03003KT 5SM BR OVC031 03/02 A3028 RMK AO2 SLP250 T00280017
Loading
Personal Weather Stations






























Interactive Weather Map New forecast layout! Learn more

10-Day Weather Forecast

Advertisements
Track Severe Weather on mobile